sensor_id;sensor_type;location;lat;lon;timestamp;pressure;altitude;pressure_sealevel;temperature;humidity
70815;BME280;58428;49.478;10.986;2023-07-24T00:00:30;97822.72;;;20.23;100.00
70815;BME280;58428;49.478;10.986;2023-07-24T00:02:58;97847.06;;;20.21;100.00
70815;BME280;58428;49.478;10.986;2023-07-24T00:05:24;97870.66;;;20.15;100.00
70815;BME280;58428;49.478;10.986;2023-07-24T00:07:49;97886.78;;;20.06;100.00
70815;BME280;58428;49.478;10.986;2023-07-24T00:10:16;97870.38;;;19.79;100.00
70815;BME280;58428;49.478;10.986;2023-07-24T00:12:41;97837.13;;;19.56;100.00
70815;BME280;58428;49.478;10.986;2023-07-24T00:15:08;97835.59;;;19.48;100.00
70815;BME280;58428;49.478;10.986;2023-07-24T00:17:34;97832.09;;;19.37;100.00
70815;BME280;58428;49.478;10.986;2023-07-24T00:19:59;97821.94;;;19.34;100.00
70815;BME280;58428;49.478;10.986;2023-07-24T00:22:25;97816.44;;;19.38;100.00
70815;BME280;58428;49.478;10.986;2023-07-24T00:24:51;97851.28;;;19.37;100.00
70815;BME280;58428;49.478;10.986;2023-07-24T00:27:18;97870.97;;;18.98;100.00
70815;BME280;58428;49.478;10.986;2023-07-24T00:29:43;97878.78;;;18.68;100.00
70815;BME280;58428;49.478;10.986;2023-07-24T00:32:08;97905.38;;;18.57;100.00
70815;BME280;58428;49.478;10.986;2023-07-24T00:34:38;97913.56;;;18.47;100.00
70815;BME280;58428;49.478;10.986;2023-07-24T00:37:04;97917.03;;;18.23;100.00
70815;BME280;58428;49.478;10.986;2023-07-24T00:39:29;97889.66;;;18.30;100.00
70815;BME280;58428;49.478;10.986;2023-07-24T00:41:55;97869.72;;;18.30;100.00
70815;BME280;58428;49.478;10.986;2023-07-24T00:44:22;97874.81;;;18.38;100.00
70815;BME280;58428;49.478;10.986;2023-07-24T00:46:48;97861.53;;;18.47;100.00
70815;BME280;58428;49.478;10.986;2023-07-24T00:49:16;97833.34;;;18.50;100.00
70815;BME280;58428;49.478;10.986;2023-07-24T00:51:42;97820.44;;;18.57;100.00
70815;BME280;58428;49.478;10.986;2023-07-24T00:54:11;97793.00;;;18.68;100.00
70815;BME280;58428;49.478;10.986;2023-07-24T00:56:36;97782.84;;;18.75;100.00
70815;BME280;58428;49.478;10.986;2023-07-24T00:59:02;97762.88;;;18.81;100.00
70815;BME280;58428;49.478;10.986;2023-07-24T01:01:28;97750.31;;;18.77;100.00
70815;BME280;58428;49.478;10.986;2023-07-24T01:03:54;97764.44;;;18.76;100.00
70815;BME280;58428;49.478;10.986;2023-07-24T01:06:21;97743.72;;;18.61;100.00
70815;BME280;58428;49.478;10.986;2023-07-24T01:08:48;97731.16;;;18.60;100.00
70815;BME280;58428;49.478;10.986;2023-07-24T01:11:20;97709.63;;;18.65;100.00
70815;BME280;58428;49.478;10.986;2023-07-24T01:14:04;97702.22;;;18.62;100.00
70815;BME280;58428;49.478;10.986;2023-07-24T01:16:36;97689.28;;;18.70;100.00
70815;BME280;58428;49.478;10.986;2023-07-24T01:19:12;97674.78;;;18.69;100.00
70815;BME280;58428;49.478;10.986;2023-07-24T01:27:00;97766.41;;;18.30;100.00
70815;BME280;58428;49.478;10.986;2023-07-24T01:29:26;97768.38;;;18.19;100.00
70815;BME280;58428;49.478;10.986;2023-07-24T01:31:51;97760.16;;;18.16;100.00
70815;BME280;58428;49.478;10.986;2023-07-24T01:34:16;97730.44;;;18.18;100.00
70815;BME280;58428;49.478;10.986;2023-07-24T01:36:42;97691.31;;;18.24;100.00
70815;BME280;58428;49.478;10.986;2023-07-24T01:39:07;97652.56;;;18.19;100.00
70815;BME280;58428;49.478;10.986;2023-07-24T01:41:34;97665.09;;;18.20;100.00
70815;BME280;58428;49.478;10.986;2023-07-24T01:43:59;97664.31;;;18.19;100.00
70815;BME280;58428;49.478;10.986;2023-07-24T01:46:25;97658.84;;;18.19;100.00
70815;BME280;58428;49.478;10.986;2023-07-24T01:48:50;97670.56;;;18.16;100.00
70815;BME280;58428;49.478;10.986;2023-07-24T01:51:17;97671.34;;;18.24;100.00
70815;BME280;58428;49.478;10.986;2023-07-24T01:53:44;97661.56;;;18.33;100.00
70815;BME280;58428;49.478;10.986;2023-07-24T01:56:09;97654.09;;;18.41;100.00
70815;BME280;58428;49.478;10.986;2023-07-24T01:58:35;97659.59;;;18.41;100.00
70815;BME280;58428;49.478;10.986;2023-07-24T02:01:00;97653.31;;;18.47;100.00
70815;BME280;58428;49.478;10.986;2023-07-24T02:03:25;97647.06;;;18.43;100.00
70815;BME280;58428;49.478;10.986;2023-07-24T02:05:51;97649.44;;;18.34;100.00
70815;BME280;58428;49.478;10.986;2023-07-24T02:08:16;97649.44;;;18.31;100.00
70815;BME280;58428;49.478;10.986;2023-07-24T02:10:42;97650.63;;;18.30;100.00
70815;BME280;58428;49.478;10.986;2023-07-24T02:13:08;97637.69;;;18.30;100.00
70815;BME280;58428;49.478;10.986;2023-07-24T02:15:34;97640.03;;;18.28;100.00
70815;BME280;58428;49.478;10.986;2023-07-24T02:18:00;97647.50;;;18.31;100.00
70815;BME280;58428;49.478;10.986;2023-07-24T02:20:25;97645.94;;;18.23;100.00
70815;BME280;58428;49.478;10.986;2023-07-24T02:22:51;97642.00;;;18.24;100.00
70815;BME280;58428;49.478;10.986;2023-07-24T02:25:17;97643.16;;;18.27;100.00
70815;BME280;58428;49.478;10.986;2023-07-24T02:27:43;97645.13;;;18.33;100.00
70815;BME280;58428;49.478;10.986;2023-07-24T02:30:09;97654.09;;;18.41;100.00
70815;BME280;58428;49.478;10.986;2023-07-24T02:32:37;97660.78;;;18.29;100.00
70815;BME280;58428;49.478;10.986;2023-07-24T02:35:04;97663.16;;;18.27;100.00
70815;BME280;58428;49.478;10.986;2023-07-24T02:37:30;97655.72;;;18.28;100.00
70815;BME280;58428;49.478;10.986;2023-07-24T02:39:55;97662.34;;;18.37;100.00
70815;BME280;58428;49.478;10.986;2023-07-24T02:42:21;97661.53;;;18.37;100.00
70815;BME280;58428;49.478;10.986;2023-07-24T02:44:47;97663.50;;;18.36;100.00
70815;BME280;58428;49.478;10.986;2023-07-24T02:47:13;97652.56;;;18.36;100.00
70815;BME280;58428;49.478;10.986;2023-07-24T02:49:38;97652.56;;;18.40;100.00
70815;BME280;58428;49.478;10.986;2023-07-24T02:52:05;97646.69;;;18.44;100.00
70815;BME280;58428;49.478;10.986;2023-07-24T02:54:31;97657.66;;;18.44;100.00
70815;BME280;58428;49.478;10.986;2023-07-24T02:56:56;97653.31;;;18.47;100.00
70815;BME280;58428;49.478;10.986;2023-07-24T02:59:23;97656.06;;;18.43;100.00
70815;BME280;58428;49.478;10.986;2023-07-24T03:01:48;97658.81;;;18.43;100.00
70815;BME280;58428;49.478;10.986;2023-07-24T03:04:14;97652.16;;;18.44;100.00
70815;BME280;58428;49.478;10.986;2023-07-24T03:06:39;97656.44;;;18.49;100.00
70815;BME280;58428;49.478;10.986;2023-07-24T03:09:08;97646.69;;;18.44;100.00
70815;BME280;58428;49.478;10.986;2023-07-24T03:11:34;97645.09;;;18.43;100.00
70815;BME280;58428;49.478;10.986;2023-07-24T03:13:59;97647.81;;;18.54;100.00
70815;BME280;58428;49.478;10.986;2023-07-24T03:16:25;97645.06;;;18.57;100.00
70815;BME280;58428;49.478;10.986;2023-07-24T03:18:51;97641.94;;;18.62;100.00
70815;BME280;58428;49.478;10.986;2023-07-24T03:21:19;97636.03;;;18.71;100.00
70815;BME280;58428;49.478;10.986;2023-07-24T03:23:45;97632.53;;;18.67;100.00
70815;BME280;58428;49.478;10.986;2023-07-24T03:26:11;97633.34;;;18.60;100.00
70815;BME280;58428;49.478;10.986;2023-07-24T03:28:37;97627.47;;;18.58;100.00
70815;BME280;58428;49.478;10.986;2023-07-24T03:31:02;97633.34;;;18.57;100.00
70815;BME280;58428;49.478;10.986;2023-07-24T03:33:27;97641.16;;;18.55;100.00
70815;BME280;58428;49.478;10.986;2023-07-24T03:35:53;97643.53;;;18.56;100.00
70815;BME280;58428;49.478;10.986;2023-07-24T03:38:20;97619.25;;;18.55;100.00
70815;BME280;58428;49.478;10.986;2023-07-24T03:40:46;97619.22;;;18.62;100.00
70815;BME280;58428;49.478;10.986;2023-07-24T03:43:12;97623.53;;;18.56;100.00
70815;BME280;58428;49.478;10.986;2023-07-24T03:45:37;97625.91;;;18.54;100.00
70815;BME280;58428;49.478;10.986;2023-07-24T03:48:03;97619.25;;;18.48;100.00
70815;BME280;58428;49.478;10.986;2023-07-24T03:50:31;97603.19;;;18.57;100.00
70815;BME280;58428;49.478;10.986;2023-07-24T03:52:56;97604.75;;;18.61;100.00
70815;BME280;58428;49.478;10.986;2023-07-24T03:55:22;97601.22;;;18.57;100.00
70815;BME280;58428;49.478;10.986;2023-07-24T03:57:47;97590.28;;;18.54;100.00
70815;BME280;58428;49.478;10.986;2023-07-24T04:00:14;97587.53;;;18.54;100.00
70815;BME280;58428;49.478;10.986;2023-07-24T04:02:39;97593.81;;;18.54;100.00
70815;BME280;58428;49.478;10.986;2023-07-24T04:05:05;97588.72;;;18.53;100.00
70815;BME280;58428;49.478;10.986;2023-07-24T04:07:30;97588.34;;;18.51;100.00
70815;BME280;58428;49.478;10.986;2023-07-24T04:09:56;97572.69;;;18.51;100.00
70815;BME280;58428;49.478;10.986;2023-07-24T04:12:21;97569.50;;;18.60;100.00
70815;BME280;58428;49.478;10.986;2023-07-24T04:14:46;97572.25;;;18.63;100.00
70815;BME280;58428;49.478;10.986;2023-07-24T04:17:14;97571.88;;;18.61;100.00
70815;BME280;58428;49.478;10.986;2023-07-24T04:19:39;97558.16;;;18.65;100.00
70815;BME280;58428;49.478;10.986;2023-07-24T04:22:04;97563.25;;;18.63;100.00
70815;BME280;58428;49.478;10.986;2023-07-24T04:24:30;97552.28;;;18.66;100.00
70815;BME280;58428;49.478;10.986;2023-07-24T04:26:55;97551.91;;;18.64;100.00
70815;BME280;58428;49.478;10.986;2023-07-24T04:29:20;97538.97;;;18.65;100.00
70815;BME280;58428;49.478;10.986;2023-07-24T04:31:49;97539.38;;;18.63;100.00
70815;BME280;58428;49.478;10.986;2023-07-24T04:34:15;97542.09;;;18.67;100.00
70815;BME280;58428;49.478;10.986;2023-07-24T04:36:40;97542.06;;;18.74;100.00
70815;BME280;58428;49.478;10.986;2023-07-24T04:39:06;97539.75;;;18.69;100.00
70815;BME280;58428;49.478;10.986;2023-07-24T04:41:31;97540.09;;;18.74;100.00
70815;BME280;58428;49.478;10.986;2023-07-24T04:43:56;97551.00;;;18.88;100.00
70815;BME280;58428;49.478;10.986;2023-07-24T04:46:23;97547.41;;;19.05;100.00
70815;BME280;58428;49.478;10.986;2023-07-24T04:48:48;97544.63;;;19.12;100.00
70815;BME280;58428;49.478;10.986;2023-07-24T04:51:15;97555.91;;;19.24;100.00
70815;BME280;58428;49.478;10.986;2023-07-24T04:53:41;97568.81;;;19.27;100.00
70815;BME280;58428;49.478;10.986;2023-07-24T04:56:07;97564.94;;;19.17;100.00
70815;BME280;58428;49.478;10.986;2023-07-24T04:58:33;97550.44;;;19.20;100.00
70815;BME280;58428;49.478;10.986;2023-07-24T05:01:02;97556.72;;;19.14;100.00
70815;BME280;58428;49.478;10.986;2023-07-24T05:03:28;97578.72;;;19.07;100.00
70815;BME280;58428;49.478;10.986;2023-07-24T05:05:56;97609.34;;;18.88;100.00
70815;BME280;58428;49.478;10.986;2023-07-24T05:08:22;97634.44;;;18.83;100.00
70815;BME280;58428;49.478;10.986;2023-07-24T05:10:54;97612.09;;;18.85;100.00
70815;BME280;58428;49.478;10.986;2023-07-24T05:13:19;97579.19;;;18.88;100.00
70815;BME280;58428;49.478;10.986;2023-07-24T05:15:44;97588.19;;;18.89;100.00
70815;BME280;58428;49.478;10.986;2023-07-24T05:18:10;97603.53;;;18.76;100.00
70815;BME280;58428;49.478;10.986;2023-07-24T05:20:35;97581.16;;;18.88;100.00
70815;BME280;58428;49.478;10.986;2023-07-24T05:23:01;97582.31;;;18.90;100.00
70815;BME280;58428;49.478;10.986;2023-07-24T05:25:27;97593.72;;;18.79;100.00
70815;BME280;58428;49.478;10.986;2023-07-24T05:27:53;97608.63;;;18.74;100.00
70815;BME280;58428;49.478;10.986;2023-07-24T05:30:18;97605.81;;;18.88;100.00
70815;BME280;58428;49.478;10.986;2023-07-24T05:32:43;97586.19;;;18.93;100.00
70815;BME280;58428;49.478;10.986;2023-07-24T05:35:11;97567.75;;;19.07;100.00
70815;BME280;58428;49.478;10.986;2023-07-24T05:37:36;97568.91;;;19.13;100.00
70815;BME280;58428;49.478;10.986;2023-07-24T05:40:03;97568.09;;;19.16;100.00
70815;BME280;58428;49.478;10.986;2023-07-24T05:42:28;97561.72;;;19.29;100.00
70815;BME280;58428;49.478;10.986;2023-07-24T05:44:54;97557.38;;;19.35;100.00
70815;BME280;58428;49.478;10.986;2023-07-24T05:47:19;97567.53;;;19.42;100.00
70815;BME280;58428;49.478;10.986;2023-07-24T05:49:44;97558.47;;;19.48;100.00
70815;BME280;58428;49.478;10.986;2023-07-24T05:52:10;97552.50;;;19.60;100.00
70815;BME280;58428;49.478;10.986;2023-07-24T05:54:35;97551.19;;;19.75;100.00
70815;BME280;58428;49.478;10.986;2023-07-24T05:57:01;97555.06;;;19.84;100.00
70815;BME280;58428;49.478;10.986;2023-07-24T05:59:26;97557.75;;;19.88;100.00
70815;BME280;58428;49.478;10.986;2023-07-24T06:01:51;97559.56;;;20.04;100.00
70815;BME280;58428;49.478;10.986;2023-07-24T06:04:17;97554.25;;;20.27;100.00
70815;BME280;58428;49.478;10.986;2023-07-24T06:06:43;97559.53;;;20.44;100.00
70815;BME280;58428;49.478;10.986;2023-07-24T06:09:08;97561.88;;;20.46;100.00
70815;BME280;58428;49.478;10.986;2023-07-24T06:11:34;97571.19;;;20.55;100.00
70815;BME280;58428;49.478;10.986;2023-07-24T06:13:59;97575.72;;;20.72;100.00
70815;BME280;58428;49.478;10.986;2023-07-24T06:16:24;97581.00;;;20.89;100.00
70815;BME280;58428;49.478;10.986;2023-07-24T06:18:50;97573.72;;;21.05;100.00
70815;BME280;58428;49.478;10.986;2023-07-24T06:21:15;97571.19;;;21.18;100.00
70815;BME280;58428;49.478;10.986;2023-07-24T06:23:41;97563.16;;;21.30;100.00
70815;BME280;58428;49.478;10.986;2023-07-24T06:26:06;97561.06;;;21.41;100.00
70815;BME280;58428;49.478;10.986;2023-07-24T06:28:31;97559.34;;;21.50;100.00
70815;BME280;58428;49.478;10.986;2023-07-24T06:30:59;97551.72;;;21.58;100.00
70815;BME280;58428;49.478;10.986;2023-07-24T06:33:25;97539.03;;;21.64;100.00
70815;BME280;58428;49.478;10.986;2023-07-24T06:35:51;97538.19;;;21.70;100.00
70815;BME280;58428;49.478;10.986;2023-07-24T06:38:17;97527.16;;;21.70;100.00
70815;BME280;58428;49.478;10.986;2023-07-24T06:40:43;97530.72;;;21.44;100.00
70815;BME280;58428;49.478;10.986;2023-07-24T06:43:08;97529.34;;;21.56;100.00
70815;BME280;58428;49.478;10.986;2023-07-24T06:45:35;97524.66;;;21.56;100.00
70815;BME280;58428;49.478;10.986;2023-07-24T06:48:00;97519.72;;;21.67;100.00
70815;BME280;58428;49.478;10.986;2023-07-24T06:50:26;97510.16;;;21.75;100.00
70815;BME280;58428;49.478;10.986;2023-07-24T06:52:52;97513.00;;;21.91;100.00
70815;BME280;58428;49.478;10.986;2023-07-24T06:55:19;97508.75;;;22.09;100.00
70815;BME280;58428;49.478;10.986;2023-07-24T06:57:44;97507.84;;;22.16;100.00
70815;BME280;58428;49.478;10.986;2023-07-24T07:00:13;97495.38;;;22.30;100.00
70815;BME280;58428;49.478;10.986;2023-07-24T07:02:39;97502.25;;;22.42;100.00
70815;BME280;58428;49.478;10.986;2023-07-24T07:05:04;97500.03;;;22.52;100.00
70815;BME280;58428;49.478;10.986;2023-07-24T07:07:30;97490.41;;;22.60;100.00
70815;BME280;58428;49.478;10.986;2023-07-24T07:09:56;97490.31;;;22.83;100.00
70815;BME280;58428;49.478;10.986;2023-07-24T07:12:23;97494.44;;;22.94;100.00
70815;BME280;58428;49.478;10.986;2023-07-24T07:14:48;97495.34;;;23.23;100.00
70815;BME280;58428;49.478;10.986;2023-07-24T07:17:13;97502.88;;;23.38;100.00
70815;BME280;58428;49.478;10.986;2023-07-24T07:19:39;97495.44;;;23.35;100.00
70815;BME280;58428;49.478;10.986;2023-07-24T07:22:05;97487.84;;;23.24;100.00
70815;BME280;58428;49.478;10.986;2023-07-24T07:24:30;97502.13;;;23.19;100.00
70815;BME280;58428;49.478;10.986;2023-07-24T07:26:56;97495.91;;;23.15;100.00
70815;BME280;58428;49.478;10.986;2023-07-24T07:29:22;97492.31;;;23.18;100.00
70815;BME280;58428;49.478;10.986;2023-07-24T17:51:03;97292.13;;;19.65;100.00
70815;BME280;58428;49.478;10.986;2023-07-24T17:53:43;97333.88;;;19.47;100.00
70815;BME280;58428;49.478;10.986;2023-07-24T17:56:14;97329.28;;;19.37;100.00
70815;BME280;58428;49.478;10.986;2023-07-24T17:58:48;97297.47;;;19.43;100.00
70815;BME280;58428;49.478;10.986;2023-07-24T18:01:17;97268.00;;;19.50;100.00
70815;BME280;58428;49.478;10.986;2023-07-24T18:03:55;97276.16;;;19.57;100.00
70815;BME280;58428;49.478;10.986;2023-07-24T18:06:26;97274.38;;;19.73;100.00
70815;BME280;58428;49.478;10.986;2023-07-24T18:08:52;97275.31;;;19.93;100.00
70815;BME280;58428;49.478;10.986;2023-07-24T18:11:28;97283.66;;;20.12;100.00
70815;BME280;58428;49.478;10.986;2023-07-24T18:13:56;97289.03;;;20.23;100.00
70815;BME280;58428;49.478;10.986;2023-07-24T18:16:25;97283.53;;;20.23;100.00
70815;BME280;58428;49.478;10.986;2023-07-24T18:18:50;97278.13;;;20.16;100.00
70815;BME280;58428;49.478;10.986;2023-07-24T18:21:23;97281.69;;;20.13;100.00
70815;BME280;58428;49.478;10.986;2023-07-24T18:23:58;97286.09;;;20.33;100.00
70815;BME280;58428;49.478;10.986;2023-07-24T18:26:35;97288.22;;;20.48;100.00
70815;BME280;58428;49.478;10.986;2023-07-24T18:29:02;97288.22;;;20.48;100.00
70815;BME280;58428;49.478;10.986;2023-07-24T18:31:28;97297.59;;;20.51;100.00
70815;BME280;58428;49.478;10.986;2023-07-24T18:33:54;97288.19;;;20.52;100.00
70815;BME280;58428;49.478;10.986;2023-07-24T18:36:20;97291.16;;;20.61;100.00
70815;BME280;58428;49.478;10.986;2023-07-24T18:38:48;97300.91;;;20.65;100.00
70815;BME280;58428;49.478;10.986;2023-07-24T18:41:15;97308.69;;;20.70;100.00
70815;BME280;58428;49.478;10.986;2023-07-24T18:43:41;97315.09;;;20.64;100.00
70815;BME280;58428;49.478;10.986;2023-07-24T18:46:09;97325.34;;;20.60;100.00
70815;BME280;58428;49.478;10.986;2023-07-24T18:48:42;97322.38;;;20.47;100.00
70815;BME280;58428;49.478;10.986;2023-07-24T18:51:12;97318.91;;;20.43;100.00
70815;BME280;58428;49.478;10.986;2023-07-24T18:53:55;97332.66;;;20.43;100.00
70815;BME280;58428;49.478;10.986;2023-07-24T18:56:27;97320.84;;;20.46;100.00
70815;BME280;58428;49.478;10.986;2023-07-24T18:58:53;97320.31;;;20.55;100.00
70815;BME280;58428;49.478;10.986;2023-07-24T19:01:21;97317.88;;;20.60;100.00
70815;BME280;58428;49.478;10.986;2023-07-24T19:03:52;97320.97;;;20.66;100.00
70815;BME280;58428;49.478;10.986;2023-07-24T19:06:17;97321.69;;;20.69;100.00
70815;BME280;58428;49.478;10.986;2023-07-24T19:09:04;97308.34;;;20.68;100.00
70815;BME280;58428;49.478;10.986;2023-07-24T19:11:32;97317.50;;;20.62;100.00
70815;BME280;58428;49.478;10.986;2023-07-24T19:13:58;97317.97;;;20.53;100.00
70815;BME280;58428;49.478;10.986;2023-07-24T19:16:24;97323.19;;;20.48;100.00
70815;BME280;58428;49.478;10.986;2023-07-24T19:18:52;97322.91;;;20.39;100.00
70815;BME280;58428;49.478;10.986;2023-07-24T19:21:35;97338.31;;;20.33;100.00
70815;BME280;58428;49.478;10.986;2023-07-24T19:24:02;97344.22;;;20.31;100.00
70815;BME280;58428;49.478;10.986;2023-07-24T19:26:28;97363.44;;;20.31;100.00
70815;BME280;58428;49.478;10.986;2023-07-24T19:29:09;97363.00;;;20.36;100.00
70815;BME280;58428;49.478;10.986;2023-07-24T19:31:37;97375.94;;;20.36;100.00
70815;BME280;58428;49.478;10.986;2023-07-24T19:34:04;97374.38;;;20.35;100.00
70815;BME280;58428;49.478;10.986;2023-07-24T19:36:38;97383.41;;;20.35;100.00
70815;BME280;58428;49.478;10.986;2023-07-24T19:39:25;97374.78;;;20.33;100.00
70815;BME280;58428;49.478;10.986;2023-07-24T19:42:14;97385.06;;;20.29;100.00
70815;BME280;58428;49.478;10.986;2023-07-24T19:44:40;97385.53;;;20.25;100.00
70815;BME280;58428;49.478;10.986;2023-07-24T19:47:05;97384.78;;;20.21;100.00
70815;BME280;58428;49.478;10.986;2023-07-24T19:49:40;97384.88;;;20.14;100.00
70815;BME280;58428;49.478;10.986;2023-07-24T19:52:09;97383.38;;;20.09;100.00
70815;BME280;58428;49.478;10.986;2023-07-24T19:54:36;97385.38;;;20.05;100.00
70815;BME280;58428;49.478;10.986;2023-07-24T19:57:15;97388.16;;;20.02;100.00
70815;BME280;58428;49.478;10.986;2023-07-24T19:59:42;97395.72;;;19.94;100.00
70815;BME280;58428;49.478;10.986;2023-07-24T20:02:08;97398.13;;;19.89;100.00
70815;BME280;58428;49.478;10.986;2023-07-24T20:04:35;97395.84;;;19.84;100.00
70815;BME280;58428;49.478;10.986;2023-07-24T20:07:04;97389.97;;;19.82;100.00
70815;BME280;58428;49.478;10.986;2023-07-24T20:09:33;97399.41;;;19.78;100.00
70815;BME280;58428;49.478;10.986;2023-07-24T20:11:59;97397.50;;;19.71;100.00
70815;BME280;58428;49.478;10.986;2023-07-24T20:14:31;97399.19;;;19.62;100.00
70815;BME280;58428;49.478;10.986;2023-07-24T20:17:13;97405.06;;;19.60;100.00
70815;BME280;58428;49.478;10.986;2023-07-24T20:19:48;97414.50;;;19.59;100.00
70815;BME280;58428;49.478;10.986;2023-07-24T20:22:13;97407.03;;;19.60;100.00
70815;BME280;58428;49.478;10.986;2023-07-24T20:24:41;97411.03;;;19.55;100.00
70815;BME280;58428;49.478;10.986;2023-07-24T20:27:06;97397.34;;;19.49;100.00
70815;BME280;58428;49.478;10.986;2023-07-24T20:29:33;97399.00;;;19.43;100.00
70815;BME280;58428;49.478;10.986;2023-07-24T20:32:00;97404.50;;;19.39;100.00
70815;BME280;58428;49.478;10.986;2023-07-24T20:34:25;97404.56;;;19.36;100.00
70815;BME280;58428;49.478;10.986;2023-07-24T20:36:52;97394.38;;;19.33;100.00
70815;BME280;58428;49.478;10.986;2023-07-24T20:39:18;97401.06;;;19.32;100.00
70815;BME280;58428;49.478;10.986;2023-07-24T20:41:46;97404.63;;;19.29;100.00
70815;BME280;58428;49.478;10.986;2023-07-24T20:44:14;97409.72;;;19.27;100.00
70815;BME280;58428;49.478;10.986;2023-07-24T20:46:41;97409.00;;;19.19;100.00
70815;BME280;58428;49.478;10.986;2023-07-24T20:49:08;97412.16;;;19.18;100.00
70815;BME280;58428;49.478;10.986;2023-07-24T20:51:34;97411.38;;;19.17;100.00
70815;BME280;58428;49.478;10.986;2023-07-24T20:54:09;97412.59;;;19.13;100.00
70815;BME280;58428;49.478;10.986;2023-07-24T20:56:45;97414.19;;;19.11;100.00
70815;BME280;58428;49.478;10.986;2023-07-24T20:59:11;97413.38;;;19.14;100.00
70815;BME280;58428;49.478;10.986;2023-07-24T21:01:45;97424.72;;;19.12;100.00
70815;BME280;58428;49.478;10.986;2023-07-24T21:04:24;97435.31;;;19.10;100.00
70815;BME280;58428;49.478;10.986;2023-07-24T21:06:57;97433.38;;;19.11;100.00
70815;BME280;58428;49.478;10.986;2023-07-24T21:09:24;97436.13;;;19.11;100.00
70815;BME280;58428;49.478;10.986;2023-07-24T21:11:50;97435.41;;;19.03;100.00
70815;BME280;58428;49.478;10.986;2023-07-24T21:14:17;97444.78;;;19.02;100.00
70815;BME280;58428;49.478;10.986;2023-07-24T21:16:44;97442.88;;;18.99;100.00
70815;BME280;58428;49.478;10.986;2023-07-24T21:19:10;97441.66;;;19.00;100.00
70815;BME280;58428;49.478;10.986;2023-07-24T21:21:36;97435.44;;;18.93;100.00
70815;BME280;58428;49.478;10.986;2023-07-24T21:24:01;97438.97;;;18.93;100.00
70815;BME280;58428;49.478;10.986;2023-07-24T21:26:26;97444.47;;;18.90;100.00
70815;BME280;58428;49.478;10.986;2023-07-24T21:28:52;97443.31;;;18.87;100.00
70815;BME280;58428;49.478;10.986;2023-07-24T21:31:17;97454.31;;;18.84;100.00
70815;BME280;58428;49.478;10.986;2023-07-24T21:33:45;97445.72;;;18.79;100.00
70815;BME280;58428;49.478;10.986;2023-07-24T21:36:12;97437.13;;;18.77;100.00
70815;BME280;58428;49.478;10.986;2023-07-24T21:38:38;97444.97;;;18.71;100.00
70815;BME280;58428;49.478;10.986;2023-07-24T21:41:06;97453.25;;;18.64;100.00
70815;BME280;58428;49.478;10.986;2023-07-24T21:43:33;97451.69;;;18.63;100.00
70815;BME280;58428;49.478;10.986;2023-07-24T21:46:06;97449.38;;;18.58;100.00
70815;BME280;58428;49.478;10.986;2023-07-24T21:48:32;97445.84;;;18.58;100.00
70815;BME280;58428;49.478;10.986;2023-07-24T21:50:59;97443.09;;;18.58;100.00
70815;BME280;58428;49.478;10.986;2023-07-24T21:53:26;97445.91;;;18.51;100.00
70815;BME280;58428;49.478;10.986;2023-07-24T21:55:52;97445.91;;;18.47;100.00
70815;BME280;58428;49.478;10.986;2023-07-24T21:58:20;97442.41;;;18.47;100.00
70815;BME280;58428;49.478;10.986;2023-07-24T22:00:47;97451.78;;;18.42;100.00
70815;BME280;58428;49.478;10.986;2023-07-24T22:03:19;97447.13;;;18.36;100.00
70815;BME280;58428;49.478;10.986;2023-07-24T22:05:45;97463.19;;;18.34;100.00
70815;BME280;58428;49.478;10.986;2023-07-24T22:08:15;97458.16;;;18.26;100.00
70815;BME280;58428;49.478;10.986;2023-07-24T22:10:42;97461.28;;;18.24;100.00
70815;BME280;58428;49.478;10.986;2023-07-24T22:13:08;97458.56;;;18.21;100.00
70815;BME280;58428;49.478;10.986;2023-07-24T22:15:36;97458.97;;;18.16;100.00
70815;BME280;58428;49.478;10.986;2023-07-24T22:18:05;97455.44;;;18.15;100.00
70815;BME280;58428;49.478;10.986;2023-07-24T22:20:33;97460.91;;;18.15;100.00
70815;BME280;58428;49.478;10.986;2023-07-24T22:22:58;97459.38;;;18.11;100.00
70815;BME280;58428;49.478;10.986;2023-07-24T22:25:25;97464.84;;;18.07;100.00
70815;BME280;58428;49.478;10.986;2023-07-24T22:27:52;97466.03;;;18.06;100.00
70815;BME280;58428;49.478;10.986;2023-07-24T22:30:18;97459.38;;;18.04;100.00
70815;BME280;58428;49.478;10.986;2023-07-24T22:32:44;97453.09;;;18.04;100.00
70815;BME280;58428;49.478;10.986;2023-07-24T22:35:10;97460.16;;;18.01;100.00
70815;BME280;58428;49.478;10.986;2023-07-24T22:37:37;97462.91;;;17.98;100.00
70815;BME280;58428;49.478;10.986;2023-07-24T22:40:03;97464.09;;;17.97;100.00
70815;BME280;58428;49.478;10.986;2023-07-24T22:42:30;97470.34;;;17.94;100.00
70815;BME280;58428;49.478;10.986;2023-07-24T22:44:58;97471.94;;;17.95;100.00
70815;BME280;58428;49.478;10.986;2023-07-24T22:47:23;97479.38;;;17.94;100.00
70815;BME280;58428;49.478;10.986;2023-07-24T22:49:49;97480.53;;;17.90;100.00
70815;BME280;58428;49.478;10.986;2023-07-24T22:52:16;97478.97;;;17.89;100.00
70815;BME280;58428;49.478;10.986;2023-07-24T22:54:42;97478.59;;;17.83;100.00
70815;BME280;58428;49.478;10.986;2023-07-24T22:57:08;97475.06;;;17.86;100.00
70815;BME280;58428;49.478;10.986;2023-07-24T22:59:35;97473.13;;;17.83;100.00
70815;BME280;58428;49.478;10.986;2023-07-24T23:02:06;97467.66;;;17.80;100.00
70815;BME280;58428;49.478;10.986;2023-07-24T23:04:31;97468.47;;;17.73;100.00